Kyoto Star — D5LH9 — position and weather

sailwx.info

Track history (hours):
 
Tides and Currents Weather Stations Pressure Air Temp Water Temp Dewpoint Dewpoint Depression Visibility Wind Speed Wind Dir Waves Ship Positions

Kyoto Star

Last reported at 2018-Jun-05 01:14 UTC. Time now 2018-Jun-24 07:11 UTC.
Position N 00°11' W 050°45'.
Warning: this ship's position is 19 days out of date.

Length 229 m; draft 11.6 m.

Type: Cargo ship. MMSI: 636017509.

Date/timePositionNaut miles runAvg speedWind from/ knotsBaromVisibWave heightAir tempDewpointWater temp
2018-Jun-05 01:14N 00°11' W 050°45'310.1
2018-Jun-05 00:56N 00°11' W 050°48'410.2
2018-Jun-05 00:31N 00°10' W 050°52'510.0
2018-Jun-05 00:01N 00°08' W 050°57'5 9.8
2018-Jun-04 23:29N 00°04' W 050°59'510.6
2018-Jun-04 23:01S 00°00' W 051°02'4 8.6
2018-Jun-04 22:30S 00°04' W 051°05'1 2.7
2018-Jun-04 22:01S 00°04' W 051°07'0 0.1
2018-Jun-04 21:31S 00°04' W 051°07'0 0.0
2018-Jun-04 21:01S 00°04' W 051°07'0 0.4
2018-Jun-04 20:25S 00°04' W 051°06'0 0.1
2018-Jun-04 19:55S 00°04' W 051°06'0 0.0
2018-Jun-04 19:25S 00°04' W 051°06'0 0.0
2018-Jun-04 18:55S 00°04' W 051°06'0 0.1
2018-Jun-04 18:28S 00°04' W 051°06'0 0.0
2018-Jun-04 17:58S 00°04' W 051°06'0 0.5
2018-Jun-04 17:25S 00°04' W 051°06'3 6.7
2018-Jun-04 17:00S 00°03' W 051°04'4 8.4
2018-Jun-04 16:30N 00°01' W 051°01'4 8.0
2018-Jun-04 16:00S 00°03' W 050°60'815.9
2018-Jun-04 15:30S 00°11' W 051°02'816.1
2018-Jun-04 15:00S 00°18' W 051°05'816.2
2018-Jun-04 14:30S 00°24' W 051°10'816.4
2018-Jun-04 14:00S 00°27' W 051°18'21214.2
2018-Jun-03 23:06S 02°24' W 054°15'218.2
2018-Jun-03 23:00S 02°24' W 054°16'917.4
2018-Jun-03 22:29S 02°25' W 054°25'817.0
2018-Jun-03 22:01S 02°28' W 054°33'815.4
2018-Jun-03 21:31S 02°25' W 054°40'815.3
2018-Jun-03 21:00S 02°19' W 054°45'917.3
2018-Jun-03 20:30S 02°11' W 054°48'1315.2
2018-Jun-03 19:40S 02°13' W 055°00'313.0
2018-Jun-03 19:28S 02°14' W 055°03'7314.0
2018-Jun-03 14:16S 01°32' W 056°02'313.1
2018-Jun-03 14:00S 01°31' W 056°05'510.5
2018-Jun-03 13:30S 01°31' W 056°11'3 6.8
2018-Jun-03 13:00S 01°32' W 056°14'4 8.1
2018-Jun-03 12:30S 01°31' W 056°18'5 9.3
2018-Jun-03 11:59S 01°28' W 056°21'3 6.1
2018-Jun-03 11:30S 01°27' W 056°24'0 0.1
2018-Jun-03 10:59S 01°27' W 056°24'0 0.0
2018-Jun-03 10:29S 01°27' W 056°24'0 0.0
2018-Jun-03 09:59S 01°27' W 056°24'0 0.0
2018-Jun-03 09:29S 01°27' W 056°24'0 0.0
2018-Jun-03 08:59S 01°27' W 056°24'0 0.0
2018-Jun-03 08:29S 01°27' W 056°24'0 0.0
2018-Jun-03 07:59S 01°27' W 056°24'0 0.0
2018-Jun-03 07:29S 01°27' W 056°24'0 0.0
2018-Jun-03 06:53S 01°27' W 056°24'0 0.0
2018-Jun-03 06:26S 01°27' W 056°24'0 0.0
2018-Jun-03 05:59S 01°27' W 056°24'0 0.0
2018-Jun-03 05:29S 01°27' W 056°24'0 0.0
2018-Jun-03 04:59S 01°27' W 056°24'0 0.0
2018-Jun-03 04:29S 01°27' W 056°24'0 0.0
2018-Jun-03 03:59S 01°27' W 056°24'0 0.0
2018-Jun-03 03:08S 01°27' W 056°24'0 0.0
2018-Jun-03 02:59S 01°27' W 056°24'0 0.0
2018-Jun-03 02:29S 01°27' W 056°24'0 0.0
2018-Jun-03 01:56S 01°27' W 056°24'0 0.0
2018-Jun-03 01:29S 01°27' W 056°24'0 0.0
2018-Jun-03 00:59S 01°27' W 056°24'0 0.0
2018-Jun-03 00:29S 01°27' W 056°24'0 0.0
2018-Jun-02 23:59S 01°27' W 056°24'0 0.0
2018-Jun-02 23:29S 01°27' W 056°24'0 0.0
2018-Jun-02 22:59S 01°27' W 056°24'0 0.0
2018-Jun-02 22:26S 01°27' W 056°24'0 0.0
2018-Jun-02 21:50S 01°27' W 056°24'0 0.0
2018-Jun-02 21:17S 01°27' W 056°24'0 0.0
2018-Jun-02 20:35S 01°27' W 056°24'0 0.1
2018-Jun-02 19:38S 01°27' W 056°24'0 0.2
2018-Jun-02 19:31S 01°27' W 056°24'1 1.5
2018-Jun-02 18:58S 01°27' W 056°23'0 0.1
2018-Jun-02 13:19S 01°28' W 056°23'0 0.0
2018-Jun-02 12:43S 01°28' W 056°23'0 0.0
2018-Jun-02 12:19S 01°28' W 056°23'0 0.0
2018-Jun-02 11:52S 01°28' W 056°23'0 0.0
2018-Jun-02 11:28S 01°28' W 056°23'0 0.0
2018-Jun-02 10:58S 01°28' W 056°23'0 0.0
2018-Jun-02 10:28S 01°28' W 056°23'0 0.0
2018-Jun-02 09:58S 01°28' W 056°23'0 0.0
2018-Jun-02 09:28S 01°28' W 056°23'0 0.0
2018-Jun-02 08:58S 01°28' W 056°23'0 0.0
2018-Jun-02 08:28S 01°28' W 056°23'0 0.0
2018-Jun-02 07:58S 01°28' W 056°23'0 0.0
2018-Jun-02 07:28S 01°28' W 056°23'0 0.0
2018-Jun-02 06:58S 01°28' W 056°23'0 0.0
2018-Jun-02 06:28S 01°28' W 056°23'0 0.0
2018-Jun-02 05:58S 01°28' W 056°23'0 0.0
2018-Jun-02 05:28S 01°28' W 056°23'0 0.0
2018-Jun-02 04:58S 01°28' W 056°23'0 0.0
2018-Jun-02 04:19S 01°28' W 056°23'0 0.0
2018-Jun-02 03:52S 01°28' W 056°23'0 0.0
2018-Jun-02 03:28S 01°28' W 056°23'0 0.0
2018-Jun-02 02:58S 01°28' W 056°23'0 0.0
2018-Jun-02 02:28S 01°28' W 056°23'0 0.0
2018-Jun-02 01:55S 01°28' W 056°23'0 0.0
2018-Jun-02 01:25S 01°28' W 056°23'0 0.0
2018-Jun-02 00:58S 01°28' W 056°23'0 0.0
2018-Jun-02 00:28S 01°28' W 056°23'0 0.0
2018-Jun-01 23:58S 01°28' W 056°23'0 0.0
2018-Jun-01 23:25S 01°28' W 056°23'0 0.0
2018-Jun-01 22:55S 01°28' W 056°23'0 0.0
2018-Jun-01 22:28S 01°28' W 056°23'0 0.0
2018-Jun-01 21:55S 01°28' W 056°23'0 0.0
2018-Jun-01 21:19S 01°28' W 056°23'0 0.0
2018-Jun-01 20:58S 01°28' W 056°23'0 0.0
2018-Jun-01 20:28S 01°28' W 056°23'0 0.0
2018-Jun-01 19:58S 01°28' W 056°23'0 0.2
2018-Jun-01 19:30S 01°28' W 056°23'1 1.9
2018-Jun-01 18:59S 01°28' W 056°22'0 0.2
2018-Jun-01 18:29S 01°28' W 056°22'0 0.0
2018-Jun-01 17:57S 01°28' W 056°22'0 0.0
2018-Jun-01 17:27S 01°28' W 056°22'0 0.0
2018-Jun-01 17:00S 01°28' W 056°22'0 0.0
2018-Jun-01 16:24S 01°28' W 056°22'0 0.0
2018-Jun-01 15:56S 01°28' W 056°22'0 0.0
2018-Jun-01 15:30S 01°28' W 056°22'0 0.0
2018-Jun-01 14:59S 01°28' W 056°22'0 0.0
2018-Jun-01 14:29S 01°28' W 056°22'0 0.0
2018-Jun-01 13:59S 01°28' W 056°22'0 0.0
2018-Jun-01 13:28S 01°28' W 056°22'0 0.0
2018-Jun-01 13:00S 01°28' W 056°22'0 0.0
2018-Jun-01 12:29S 01°28' W 056°22'0 0.0
2018-Jun-01 12:00S 01°28' W 056°22'0 0.0
2018-Jun-01 11:30S 01°28' W 056°22'0 0.0
2018-Jun-01 10:59S 01°28' W 056°22'0 0.0
2018-Jun-01 05:25S 01°28' W 056°22'0 0.0
2018-Jun-01 04:57S 01°28' W 056°22'0 0.0
2018-Jun-01 04:30S 01°28' W 056°22'0 0.0
2018-Jun-01 04:00S 01°28' W 056°22'0 0.0
2018-Jun-01 03:27S 01°28' W 056°22'0 0.0
2018-Jun-01 02:57S 01°28' W 056°22'0 0.0
2018-Jun-01 02:30S 01°28' W 056°22'0 0.0
2018-Jun-01 02:00S 01°28' W 056°22'0 0.0
2018-Jun-01 01:30S 01°28' W 056°22'0 0.0
2018-Jun-01 00:59S 01°28' W 056°22'0 0.0
2018-Jun-01 00:29S 01°28' W 056°22'0 0.0
2018-May-31 23:59S 01°28' W 056°22'0 0.0
2018-May-31 23:30S 01°28' W 056°22'0 0.0
2018-May-31 22:59S 01°28' W 056°22'0 0.0
2018-May-31 22:30S 01°28' W 056°22'0 0.0
2018-May-31 22:00S 01°28' W 056°22'0 0.0
2018-May-31 21:29S 01°28' W 056°22'0 0.0
2018-May-31 20:59S 01°28' W 056°22'0 0.0
2018-May-31 20:29S 01°28' W 056°22'0 0.0
2018-May-31 19:59S 01°28' W 056°22'0 0.0
2018-May-31 17:10S 01°28' W 056°22'0 0.0
2018-May-31 16:59S 01°28' W 056°22'0 0.0
2018-May-31 16:28S 01°28' W 056°22'0 0.0
2018-May-31 16:00S 01°28' W 056°22'0 0.0
2018-May-31 15:29S 01°28' W 056°22'0 0.1
2018-May-31 15:01S 01°28' W 056°22'9 6.7
2018-May-31 13:36S 01°32' W 056°14'1 5.5
2018-May-31 13:31S 01°32' W 056°13'4 7.8
2018-May-31 13:00S 01°31' W 056°09'5 9.4
2018-May-31 12:31S 01°31' W 056°05'8010.0
2018-May-31 04:31S 02°10' W 054°54'0 0.0
2018-May-31 04:30S 02°10' W 054°54'5 9.8
2018-May-31 04:00S 02°10' W 054°49'5 9.8
2018-May-31 03:31S 02°14' W 054°46'611.2
2018-May-31 03:00S 02°20' W 054°45'510.3
2018-May-31 02:31S 02°24' W 054°42'510.9
2018-May-31 02:00S 02°27' W 054°38'510.7
2018-May-31 01:31S 02°27' W 054°32'511.0
2018-May-31 01:01S 02°26' W 054°27'510.4
2018-May-31 00:30S 02°24' W 054°22'251 8.6
2018-May-29 19:08N 00°03' W 050°59'0 0.1
2018-May-29 18:56N 00°03' W 050°59'0 0.0
2018-May-29 18:26N 00°03' W 050°59'0 0.0
2018-May-29 16:50N 00°03' W 050°59'0 0.4
2018-May-29 16:20N 00°03' W 050°58'0 0.1
2018-May-29 15:56N 00°03' W 050°58'0 0.0
2018-May-29 15:26N 00°03' W 050°58'0 0.0
2018-May-29 14:50N 00°03' W 050°58'0 0.0
2018-May-29 14:20N 00°03' W 050°58'0 0.0
2018-May-29 13:56N 00°03' W 050°58'0 0.0
2018-May-29 13:26N 00°03' W 050°58'0 0.0
2018-May-29 12:56N 00°03' W 050°58'0 0.0
2018-May-29 07:26N 00°03' W 050°59'0 0.1
2018-May-29 06:50N 00°03' W 050°58'0 0.0
2018-May-29 06:26N 00°03' W 050°58'0 0.1
2018-May-29 04:20N 00°03' W 050°59'0 0.4
2018-May-29 03:50N 00°03' W 050°58'0 0.0
2018-May-29 03:26N 00°03' W 050°58'0 0.0
2018-May-29 02:56N 00°03' W 050°58'0 0.0
2018-May-29 02:26N 00°03' W 050°58'0 0.0
2018-May-29 01:56N 00°04' W 050°58'0 0.0
2018-May-29 01:26N 00°04' W 050°58'0 0.0
2018-May-29 00:56N 00°04' W 050°58'0 0.0
2018-May-29 00:26N 00°03' W 050°58'0 0.0
2018-May-28 23:56N 00°04' W 050°58'0 0.0
2018-May-28 23:20N 00°03' W 050°58'0 0.0
2018-May-28 22:56N 00°03' W 050°58'0 0.0
2018-May-28 22:20N 00°03' W 050°58'0 0.0
2018-May-28 21:56N 00°03' W 050°58'0 0.0
2018-May-28 21:26N 00°03' W 050°58'0 0.0
2018-May-28 20:56N 00°03' W 050°58'0 0.0
2018-May-28 20:26N 00°03' W 050°58'0 0.0
2018-May-28 19:56N 00°03' W 050°58'0 0.2
2018-May-28 19:26N 00°03' W 050°58'0 0.2
2018-May-28 18:50N 00°03' W 050°59'0 0.1
2018-May-28 18:14N 00°03' W 050°59'0 0.1
2018-May-28 17:35N 00°03' W 050°59'0 0.1
2018-May-28 17:29N 00°03' W 050°59'0 0.1
2018-May-28 16:59N 00°03' W 050°59'0 0.1
2018-May-28 16:26N 00°03' W 050°59'0 0.2
2018-May-28 15:44N 00°03' W 050°59'0 0.4
2018-May-28 15:26N 00°03' W 050°59'0 0.1
2018-May-28 14:08N 00°03' W 050°58'0 0.0
2018-May-28 13:44N 00°03' W 050°58'0 0.0
2018-May-28 13:20N 00°03' W 050°58'0 0.0
2018-May-28 12:56N 00°03' W 050°58'1 0.0
2018-May-26 21:33N 00°04' W 050°58'0 1.2
2018-May-26 21:30N 00°04' W 050°58'2 4.8
2018-May-26 21:00N 00°06' W 050°57'4 8.4
2018-May-26 20:30N 00°09' W 050°55'5 9.5
2018-May-26 20:00N 00°10' W 050°50'3 6.9
2018-May-26 19:30N 00°11' W 050°47'5 7.2
2018-May-26 18:52N 00°12' W 050°42'  
Track history (hours):
 
Tides and Currents Weather Stations Pressure Air Temp Water Temp Dewpoint Dewpoint Depression Visibility Wind Speed Wind Dir Waves Ship Positions

Kyoto Star

Last reported at 2018-Jun-05 01:14 UTC. Time now 2018-Jun-24 07:11 UTC.
Position N 00°11' W 050°45'.
Warning: this ship's position is 19 days out of date.

Length 229 m; draft 11.6 m.

Type: Cargo ship. MMSI: 636017509.

Date/timePositionNaut miles runAvg speedWind from/ knotsBaromVisibWave heightAir tempDewpointWater temp
2018-Jun-05 01:14N 00°11' W 050°45'310.1
2018-Jun-05 00:56N 00°11' W 050°48'410.2
2018-Jun-05 00:31N 00°10' W 050°52'510.0
2018-Jun-05 00:01N 00°08' W 050°57'5 9.8
2018-Jun-04 23:29N 00°04' W 050°59'510.6
2018-Jun-04 23:01S 00°00' W 051°02'4 8.6
2018-Jun-04 22:30S 00°04' W 051°05'1 2.7
2018-Jun-04 22:01S 00°04' W 051°07'0 0.1
2018-Jun-04 21:31S 00°04' W 051°07'0 0.0
2018-Jun-04 21:01S 00°04' W 051°07'0 0.4
2018-Jun-04 20:25S 00°04' W 051°06'0 0.1
2018-Jun-04 19:55S 00°04' W 051°06'0 0.0
2018-Jun-04 19:25S 00°04' W 051°06'0 0.0
2018-Jun-04 18:55S 00°04' W 051°06'0 0.1
2018-Jun-04 18:28S 00°04' W 051°06'0 0.0
2018-Jun-04 17:58S 00°04' W 051°06'0 0.5
2018-Jun-04 17:25S 00°04' W 051°06'3 6.7
2018-Jun-04 17:00S 00°03' W 051°04'4 8.4
2018-Jun-04 16:30N 00°01' W 051°01'4 8.0
2018-Jun-04 16:00S 00°03' W 050°60'815.9
2018-Jun-04 15:30S 00°11' W 051°02'816.1
2018-Jun-04 15:00S 00°18' W 051°05'816.2
2018-Jun-04 14:30S 00°24' W 051°10'816.4
2018-Jun-04 14:00S 00°27' W 051°18'21214.2
2018-Jun-03 23:06S 02°24' W 054°15'218.2
2018-Jun-03 23:00S 02°24' W 054°16'917.4
2018-Jun-03 22:29S 02°25' W 054°25'817.0
2018-Jun-03 22:01S 02°28' W 054°33'815.4
2018-Jun-03 21:31S 02°25' W 054°40'815.3
2018-Jun-03 21:00S 02°19' W 054°45'917.3
2018-Jun-03 20:30S 02°11' W 054°48'1315.2
2018-Jun-03 19:40S 02°13' W 055°00'313.0
2018-Jun-03 19:28S 02°14' W 055°03'7314.0
2018-Jun-03 14:16S 01°32' W 056°02'313.1
2018-Jun-03 14:00S 01°31' W 056°05'510.5
2018-Jun-03 13:30S 01°31' W 056°11'3 6.8
2018-Jun-03 13:00S 01°32' W 056°14'4 8.1
2018-Jun-03 12:30S 01°31' W 056°18'5 9.3
2018-Jun-03 11:59S 01°28' W 056°21'3 6.1
2018-Jun-03 11:30S 01°27' W 056°24'0 0.1
2018-Jun-03 10:59S 01°27' W 056°24'0 0.0
2018-Jun-03 10:29S 01°27' W 056°24'0 0.0
2018-Jun-03 09:59S 01°27' W 056°24'0 0.0
2018-Jun-03 09:29S 01°27' W 056°24'0 0.0
2018-Jun-03 08:59S 01°27' W 056°24'0 0.0
2018-Jun-03 08:29S 01°27' W 056°24'0 0.0
2018-Jun-03 07:59S 01°27' W 056°24'0 0.0
2018-Jun-03 07:29S 01°27' W 056°24'0 0.0
2018-Jun-03 06:53S 01°27' W 056°24'0 0.0
2018-Jun-03 06:26S 01°27' W 056°24'0 0.0
2018-Jun-03 05:59S 01°27' W 056°24'0 0.0
2018-Jun-03 05:29S 01°27' W 056°24'0 0.0
2018-Jun-03 04:59S 01°27' W 056°24'0 0.0
2018-Jun-03 04:29S 01°27' W 056°24'0 0.0
2018-Jun-03 03:59S 01°27' W 056°24'0 0.0
2018-Jun-03 03:08S 01°27' W 056°24'0 0.0
2018-Jun-03 02:59S 01°27' W 056°24'0 0.0
2018-Jun-03 02:29S 01°27' W 056°24'0 0.0
2018-Jun-03 01:56S 01°27' W 056°24'0 0.0
2018-Jun-03 01:29S 01°27' W 056°24'0 0.0
2018-Jun-03 00:59S 01°27' W 056°24'0 0.0
2018-Jun-03 00:29S 01°27' W 056°24'0 0.0
2018-Jun-02 23:59S 01°27' W 056°24'0 0.0
2018-Jun-02 23:29S 01°27' W 056°24'0 0.0
2018-Jun-02 22:59S 01°27' W 056°24'0 0.0
2018-Jun-02 22:26S 01°27' W 056°24'0 0.0
2018-Jun-02 21:50S 01°27' W 056°24'0 0.0
2018-Jun-02 21:17S 01°27' W 056°24'0 0.0
2018-Jun-02 20:35S 01°27' W 056°24'0 0.1
2018-Jun-02 19:38S 01°27' W 056°24'0 0.2
2018-Jun-02 19:31S 01°27' W 056°24'1 1.5
2018-Jun-02 18:58S 01°27' W 056°23'0 0.1
2018-Jun-02 13:19S 01°28' W 056°23'0 0.0
2018-Jun-02 12:43S 01°28' W 056°23'0 0.0
2018-Jun-02 12:19S 01°28' W 056°23'0 0.0
2018-Jun-02 11:52S 01°28' W 056°23'0 0.0
2018-Jun-02 11:28S 01°28' W 056°23'0 0.0
2018-Jun-02 10:58S 01°28' W 056°23'0 0.0
2018-Jun-02 10:28S 01°28' W 056°23'0 0.0
2018-Jun-02 09:58S 01°28' W 056°23'0 0.0
2018-Jun-02 09:28S 01°28' W 056°23'0 0.0
2018-Jun-02 08:58S 01°28' W 056°23'0 0.0
2018-Jun-02 08:28S 01°28' W 056°23'0 0.0
2018-Jun-02 07:58S 01°28' W 056°23'0 0.0
2018-Jun-02 07:28S 01°28' W 056°23'0 0.0
2018-Jun-02 06:58S 01°28' W 056°23'0 0.0
2018-Jun-02 06:28S 01°28' W 056°23'0 0.0
2018-Jun-02 05:58S 01°28' W 056°23'0 0.0
2018-Jun-02 05:28S 01°28' W 056°23'0 0.0
2018-Jun-02 04:58S 01°28' W 056°23'0 0.0
2018-Jun-02 04:19S 01°28' W 056°23'0 0.0
2018-Jun-02 03:52S 01°28' W 056°23'0 0.0
2018-Jun-02 03:28S 01°28' W 056°23'0 0.0
2018-Jun-02 02:58S 01°28' W 056°23'0 0.0
2018-Jun-02 02:28S 01°28' W 056°23'0 0.0
2018-Jun-02 01:55S 01°28' W 056°23'0 0.0
2018-Jun-02 01:25S 01°28' W 056°23'0 0.0
2018-Jun-02 00:58S 01°28' W 056°23'0 0.0
2018-Jun-02 00:28S 01°28' W 056°23'0 0.0
2018-Jun-01 23:58S 01°28' W 056°23'0 0.0
2018-Jun-01 23:25S 01°28' W 056°23'0 0.0
2018-Jun-01 22:55S 01°28' W 056°23'0 0.0
2018-Jun-01 22:28S 01°28' W 056°23'0 0.0
2018-Jun-01 21:55S 01°28' W 056°23'0 0.0
2018-Jun-01 21:19S 01°28' W 056°23'0 0.0
2018-Jun-01 20:58S 01°28' W 056°23'0 0.0
2018-Jun-01 20:28S 01°28' W 056°23'0 0.0
2018-Jun-01 19:58S 01°28' W 056°23'0 0.2
2018-Jun-01 19:30S 01°28' W 056°23'1 1.9
2018-Jun-01 18:59S 01°28' W 056°22'0 0.2
2018-Jun-01 18:29S 01°28' W 056°22'0 0.0
2018-Jun-01 17:57S 01°28' W 056°22'0 0.0
2018-Jun-01 17:27S 01°28' W 056°22'0 0.0
2018-Jun-01 17:00S 01°28' W 056°22'0 0.0
2018-Jun-01 16:24S 01°28' W 056°22'0 0.0
2018-Jun-01 15:56S 01°28' W 056°22'0 0.0
2018-Jun-01 15:30S 01°28' W 056°22'0 0.0
2018-Jun-01 14:59S 01°28' W 056°22'0 0.0
2018-Jun-01 14:29S 01°28' W 056°22'0 0.0
2018-Jun-01 13:59S 01°28' W 056°22'0 0.0
2018-Jun-01 13:28S 01°28' W 056°22'0 0.0
2018-Jun-01 13:00S 01°28' W 056°22'0 0.0
2018-Jun-01 12:29S 01°28' W 056°22'0 0.0
2018-Jun-01 12:00S 01°28' W 056°22'0 0.0
2018-Jun-01 11:30S 01°28' W 056°22'0 0.0
2018-Jun-01 10:59S 01°28' W 056°22'0 0.0
2018-Jun-01 05:25S 01°28' W 056°22'0 0.0
2018-Jun-01 04:57S 01°28' W 056°22'0 0.0
2018-Jun-01 04:30S 01°28' W 056°22'0 0.0
2018-Jun-01 04:00S 01°28' W 056°22'0 0.0
2018-Jun-01 03:27S 01°28' W 056°22'0 0.0
2018-Jun-01 02:57S 01°28' W 056°22'0 0.0
2018-Jun-01 02:30S 01°28' W 056°22'0 0.0
2018-Jun-01 02:00S 01°28' W 056°22'0 0.0
2018-Jun-01 01:30S 01°28' W 056°22'0 0.0
2018-Jun-01 00:59S 01°28' W 056°22'0 0.0
2018-Jun-01 00:29S 01°28' W 056°22'0 0.0
2018-May-31 23:59S 01°28' W 056°22'0 0.0
2018-May-31 23:30S 01°28' W 056°22'0 0.0
2018-May-31 22:59S 01°28' W 056°22'0 0.0
2018-May-31 22:30S 01°28' W 056°22'0 0.0
2018-May-31 22:00S 01°28' W 056°22'0 0.0
2018-May-31 21:29S 01°28' W 056°22'0 0.0
2018-May-31 20:59S 01°28' W 056°22'0 0.0
2018-May-31 20:29S 01°28' W 056°22'0 0.0
2018-May-31 19:59S 01°28' W 056°22'0 0.0
2018-May-31 17:10S 01°28' W 056°22'0 0.0
2018-May-31 16:59S 01°28' W 056°22'0 0.0
2018-May-31 16:28S 01°28' W 056°22'0 0.0
2018-May-31 16:00S 01°28' W 056°22'0 0.0
2018-May-31 15:29S 01°28' W 056°22'0 0.1
2018-May-31 15:01S 01°28' W 056°22'9 6.7
2018-May-31 13:36S 01°32' W 056°14'1 5.5
2018-May-31 13:31S 01°32' W 056°13'4 7.8
2018-May-31 13:00S 01°31' W 056°09'5 9.4
2018-May-31 12:31S 01°31' W 056°05'8010.0
2018-May-31 04:31S 02°10' W 054°54'0 0.0
2018-May-31 04:30S 02°10' W 054°54'5 9.8
2018-May-31 04:00S 02°10' W 054°49'5 9.8
2018-May-31 03:31S 02°14' W 054°46'611.2
2018-May-31 03:00S 02°20' W 054°45'510.3
2018-May-31 02:31S 02°24' W 054°42'510.9
2018-May-31 02:00S 02°27' W 054°38'510.7
2018-May-31 01:31S 02°27' W 054°32'511.0
2018-May-31 01:01S 02°26' W 054°27'510.4
2018-May-31 00:30S 02°24' W 054°22'251 8.6
2018-May-29 19:08N 00°03' W 050°59'0 0.1
2018-May-29 18:56N 00°03' W 050°59'0 0.0
2018-May-29 18:26N 00°03' W 050°59'0 0.0
2018-May-29 16:50N 00°03' W 050°59'0 0.4
2018-May-29 16:20N 00°03' W 050°58'0 0.1
2018-May-29 15:56N 00°03' W 050°58'0 0.0
2018-May-29 15:26N 00°03' W 050°58'0 0.0
2018-May-29 14:50N 00°03' W 050°58'0 0.0
2018-May-29 14:20N 00°03' W 050°58'0 0.0
2018-May-29 13:56N 00°03' W 050°58'0 0.0
2018-May-29 13:26N 00°03' W 050°58'0 0.0
2018-May-29 12:56N 00°03' W 050°58'0 0.0
2018-May-29 07:26N 00°03' W 050°59'0 0.1
2018-May-29 06:50N 00°03' W 050°58'0 0.0
2018-May-29 06:26N 00°03' W 050°58'0 0.1
2018-May-29 04:20N 00°03' W 050°59'0 0.4
2018-May-29 03:50N 00°03' W 050°58'0 0.0
2018-May-29 03:26N 00°03' W 050°58'0 0.0
2018-May-29 02:56N 00°03' W 050°58'0 0.0
2018-May-29 02:26N 00°03' W 050°58'0 0.0
2018-May-29 01:56N 00°04' W 050°58'0 0.0
2018-May-29 01:26N 00°04' W 050°58'0 0.0
2018-May-29 00:56N 00°04' W 050°58'0 0.0
2018-May-29 00:26N 00°03' W 050°58'0 0.0
2018-May-28 23:56N 00°04' W 050°58'0 0.0
2018-May-28 23:20N 00°03' W 050°58'0 0.0
2018-May-28 22:56N 00°03' W 050°58'0 0.0
2018-May-28 22:20N 00°03' W 050°58'0 0.0
2018-May-28 21:56N 00°03' W 050°58'0 0.0
2018-May-28 21:26N 00°03' W 050°58'0 0.0
2018-May-28 20:56N 00°03' W 050°58'0 0.0
2018-May-28 20:26N 00°03' W 050°58'0 0.0
2018-May-28 19:56N 00°03' W 050°58'0 0.2
2018-May-28 19:26N 00°03' W 050°58'0 0.2
2018-May-28 18:50N 00°03' W 050°59'0 0.1
2018-May-28 18:14N 00°03' W 050°59'0 0.1
2018-May-28 17:35N 00°03' W 050°59'0 0.1
2018-May-28 17:29N 00°03' W 050°59'0 0.1
2018-May-28 16:59N 00°03' W 050°59'0 0.1
2018-May-28 16:26N 00°03' W 050°59'0 0.2
2018-May-28 15:44N 00°03' W 050°59'0 0.4
2018-May-28 15:26N 00°03' W 050°59'0 0.1
2018-May-28 14:08N 00°03' W 050°58'0 0.0
2018-May-28 13:44N 00°03' W 050°58'0 0.0
2018-May-28 13:20N 00°03' W 050°58'0 0.0
2018-May-28 12:56N 00°03' W 050°58'1 0.0
2018-May-26 21:33N 00°04' W 050°58'0 1.2
2018-May-26 21:30N 00°04' W 050°58'2 4.8
2018-May-26 21:00N 00°06' W 050°57'4 8.4
2018-May-26 20:30N 00°09' W 050°55'5 9.5
2018-May-26 20:00N 00°10' W 050°50'3 6.9
2018-May-26 19:30N 00°11' W 050°47'5 7.2
2018-May-26 18:52N 00°12' W 050°42'  

Dump ship's entire track history